createdAt,value
2018-01-30T19:51:22.450Z,99.90
2018-01-30T19:53:49.162Z,99.90
2018-01-30T19:56:16.116Z,99.90
2018-01-30T19:58:42.827Z,99.90
2018-01-30T20:01:09.505Z,99.90
2018-01-30T20:03:36.260Z,99.90
2018-01-30T20:06:03.053Z,99.90
2018-01-30T20:08:29.765Z,99.90
2018-01-30T20:10:56.542Z,99.90
2018-01-30T20:13:23.379Z,99.90
2018-01-30T20:15:50.103Z,99.90
2018-01-30T20:18:16.804Z,99.90
2018-01-30T20:20:45.613Z,99.90
2018-01-30T20:23:12.347Z,99.90
2018-01-30T20:25:39.892Z,99.90
2018-01-30T20:28:06.611Z,99.90
2018-01-30T20:30:33.509Z,99.90
2018-01-30T20:33:00.394Z,99.90
2018-01-30T20:35:27.616Z,99.90
2018-01-30T20:37:54.623Z,99.90
2018-01-30T20:40:21.311Z,99.90
2018-01-30T20:42:48.473Z,99.90
2018-01-30T20:45:15.324Z,99.90
2018-01-30T20:47:42.169Z,99.90
2018-01-30T20:50:08.882Z,99.90
2018-01-30T20:52:36.361Z,99.90
2018-01-30T20:55:03.183Z,99.90
2018-01-30T20:57:30.742Z,99.40
2018-01-30T20:59:58.253Z,99.00
2018-01-30T21:02:24.947Z,99.00
2018-01-30T21:04:51.690Z,98.90
2018-01-30T21:07:18.443Z,98.60
2018-01-30T21:09:45.849Z,99.40
2018-01-30T21:12:12.565Z,99.30
2018-01-30T21:14:40.012Z,99.00
2018-01-30T21:17:07.493Z,98.60
2018-01-30T21:19:34.223Z,98.20
2018-01-30T21:22:01.798Z,98.00
2018-01-30T21:24:28.515Z,98.00
2018-01-30T21:26:55.950Z,98.10
2018-01-30T21:29:22.681Z,98.10
2018-01-30T21:31:49.362Z,97.60
2018-01-30T21:34:17.172Z,97.30
2018-01-30T21:36:44.081Z,97.30
2018-01-30T21:39:10.751Z,97.40
2018-01-30T21:41:37.430Z,98.20
2018-01-30T21:44:04.134Z,97.60
2018-01-30T21:46:31.390Z,97.60
2018-01-30T21:48:58.100Z,97.80
2018-01-30T21:51:24.870Z,98.10
2018-01-30T21:53:52.298Z,97.60
2018-01-30T21:56:18.989Z,97.60
2018-01-30T21:58:45.770Z,97.80
2018-01-30T22:01:12.419Z,97.90
2018-01-30T22:03:39.057Z,97.60
2018-01-30T22:06:06.397Z,97.00
2018-01-30T22:08:33.094Z,97.10
2018-01-30T22:11:02.113Z,96.90
2018-01-30T22:13:28.945Z,96.90
2018-01-30T22:15:56.396Z,96.90
2018-01-30T22:18:23.221Z,96.90
2018-01-30T22:20:49.930Z,97.30
2018-01-30T22:23:16.616Z,97.60
2018-01-30T22:25:43.392Z,97.80
2018-01-30T22:28:10.124Z,97.40
2018-01-30T22:30:37.615Z,98.20
2018-01-30T22:33:04.306Z,98.20
2018-01-30T22:35:31.011Z,98.30
2018-01-30T22:37:58.750Z,98.50
2018-01-30T22:40:26.274Z,98.40
2018-01-30T22:42:53.183Z,98.30
2018-01-30T22:45:19.982Z,98.50
